sensor_id;sensor_type;location;lat;lon;timestamp;temperature;humidity
53114;DHT22;39009;53.166;6.232;2022-07-30T00:01:31;14.60;99.90
53114;DHT22;39009;53.166;6.232;2022-07-30T00:04:04;14.60;99.90
53114;DHT22;39009;53.166;6.232;2022-07-30T00:06:30;14.60;99.90
53114;DHT22;39009;53.166;6.232;2022-07-30T00:08:59;14.60;99.90
53114;DHT22;39009;53.166;6.232;2022-07-30T00:11:25;14.60;99.90
53114;DHT22;39009;53.166;6.232;2022-07-30T00:13:50;14.70;99.90
53114;DHT22;39009;53.166;6.232;2022-07-30T00:16:16;14.60;99.90
53114;DHT22;39009;53.166;6.232;2022-07-30T00:18:41;14.50;99.90
53114;DHT22;39009;53.166;6.232;2022-07-30T00:21:07;14.40;99.90
53114;DHT22;39009;53.166;6.232;2022-07-30T00:23:32;14.40;99.90
53114;DHT22;39009;53.166;6.232;2022-07-30T00:25:58;14.30;99.90
53114;DHT22;39009;53.166;6.232;2022-07-30T00:28:24;14.30;99.90
53114;DHT22;39009;53.166;6.232;2022-07-30T00:30:49;14.30;99.90
53114;DHT22;39009;53.166;6.232;2022-07-30T00:33:15;14.30;99.90
53114;DHT22;39009;53.166;6.232;2022-07-30T00:35:40;14.30;99.90
53114;DHT22;39009;53.166;6.232;2022-07-30T00:38:06;14.30;99.90
53114;DHT22;39009;53.166;6.232;2022-07-30T00:40:32;14.20;99.90
53114;DHT22;39009;53.166;6.232;2022-07-30T00:42:57;14.20;99.90
53114;DHT22;39009;53.166;6.232;2022-07-30T00:45:23;14.20;99.90
53114;DHT22;39009;53.166;6.232;2022-07-30T00:47:48;14.10;99.90
53114;DHT22;39009;53.166;6.232;2022-07-30T00:50:14;14.10;99.90
53114;DHT22;39009;53.166;6.232;2022-07-30T00:52:40;14.10;99.90
53114;DHT22;39009;53.166;6.232;2022-07-30T00:55:07;14.00;99.90
53114;DHT22;39009;53.166;6.232;2022-07-30T00:57:33;13.90;99.90
53114;DHT22;39009;53.166;6.232;2022-07-30T00:59:58;13.90;99.90
53114;DHT22;39009;53.166;6.232;2022-07-30T01:02:24;13.90;99.90
53114;DHT22;39009;53.166;6.232;2022-07-30T01:04:50;13.80;99.90
53114;DHT22;39009;53.166;6.232;2022-07-30T01:07:15;13.80;99.90
53114;DHT22;39009;53.166;6.232;2022-07-30T01:09:41;13.60;99.90
53114;DHT22;39009;53.166;6.232;2022-07-30T01:12:06;13.50;99.90
53114;DHT22;39009;53.166;6.232;2022-07-30T01:14:34;13.50;99.90
53114;DHT22;39009;53.166;6.232;2022-07-30T01:17:00;13.50;99.90
53114;DHT22;39009;53.166;6.232;2022-07-30T01:19:27;13.50;99.90
53114;DHT22;39009;53.166;6.232;2022-07-30T01:25:08;13.40;99.90
53114;DHT22;39009;53.166;6.232;2022-07-30T01:27:39;13.40;99.90
53114;DHT22;39009;53.166;6.232;2022-07-30T01:30:06;13.40;99.90
53114;DHT22;39009;53.166;6.232;2022-07-30T01:32:33;13.30;99.90
53114;DHT22;39009;53.166;6.232;2022-07-30T01:34:59;13.30;99.90
53114;DHT22;39009;53.166;6.232;2022-07-30T01:37:25;13.30;99.90
53114;DHT22;39009;53.166;6.232;2022-07-30T01:39:51;13.30;99.90
53114;DHT22;39009;53.166;6.232;2022-07-30T01:42:17;13.30;99.90
53114;DHT22;39009;53.166;6.232;2022-07-30T01:44:43;13.30;99.90
53114;DHT22;39009;53.166;6.232;2022-07-30T01:47:09;13.30;99.90
53114;DHT22;39009;53.166;6.232;2022-07-30T01:49:35;13.20;99.90
53114;DHT22;39009;53.166;6.232;2022-07-30T01:52:02;13.10;99.90
53114;DHT22;39009;53.166;6.232;2022-07-30T01:54:28;13.10;99.90
53114;DHT22;39009;53.166;6.232;2022-07-30T01:56:55;13.10;99.90
53114;DHT22;39009;53.166;6.232;2022-07-30T01:59:20;13.10;99.90
53114;DHT22;39009;53.166;6.232;2022-07-30T02:01:47;13.00;99.90
53114;DHT22;39009;53.166;6.232;2022-07-30T02:04:12;12.90;99.90
53114;DHT22;39009;53.166;6.232;2022-07-30T02:06:41;12.90;99.90
53114;DHT22;39009;53.166;6.232;2022-07-30T02:09:07;12.90;99.90
53114;DHT22;39009;53.166;6.232;2022-07-30T02:11:36;12.80;99.90
53114;DHT22;39009;53.166;6.232;2022-07-30T02:14:23;12.80;99.90
53114;DHT22;39009;53.166;6.232;2022-07-30T02:16:49;12.80;99.90
53114;DHT22;39009;53.166;6.232;2022-07-30T02:19:17;12.90;99.90
53114;DHT22;39009;53.166;6.232;2022-07-30T02:21:44;12.80;99.90
53114;DHT22;39009;53.166;6.232;2022-07-30T02:24:11;12.80;99.90
53114;DHT22;39009;53.166;6.232;2022-07-30T02:26:38;12.70;99.90
53114;DHT22;39009;53.166;6.232;2022-07-30T02:29:05;12.70;99.90
53114;DHT22;39009;53.166;6.232;2022-07-30T02:31:31;12.70;99.90
53114;DHT22;39009;53.166;6.232;2022-07-30T02:33:57;12.60;99.90
53114;DHT22;39009;53.166;6.232;2022-07-30T02:36:24;12.50;99.90
53114;DHT22;39009;53.166;6.232;2022-07-30T02:38:53;12.40;99.90
53114;DHT22;39009;53.166;6.232;2022-07-30T02:41:21;12.40;99.90
53114;DHT22;39009;53.166;6.232;2022-07-30T02:43:48;12.40;99.90
53114;DHT22;39009;53.166;6.232;2022-07-30T02:46:15;12.40;99.90
53114;DHT22;39009;53.166;6.232;2022-07-30T02:48:42;12.40;99.90
53114;DHT22;39009;53.166;6.232;2022-07-30T02:51:09;12.40;99.90
53114;DHT22;39009;53.166;6.232;2022-07-30T02:53:35;12.40;99.90
53114;DHT22;39009;53.166;6.232;2022-07-30T02:56:01;12.40;99.90
53114;DHT22;39009;53.166;6.232;2022-07-30T02:58:27;12.30;99.90
53114;DHT22;39009;53.166;6.232;2022-07-30T03:00:55;12.30;99.90
53114;DHT22;39009;53.166;6.232;2022-07-30T03:03:21;12.30;99.90
53114;DHT22;39009;53.166;6.232;2022-07-30T03:05:53;12.30;99.90
53114;DHT22;39009;53.166;6.232;2022-07-30T03:08:19;12.30;99.90
53114;DHT22;39009;53.166;6.232;2022-07-30T03:10:45;12.20;99.90
53114;DHT22;39009;53.166;6.232;2022-07-30T03:13:11;12.30;99.90
53114;DHT22;39009;53.166;6.232;2022-07-30T03:15:40;12.20;99.90
53114;DHT22;39009;53.166;6.232;2022-07-30T03:18:06;12.10;99.90
53114;DHT22;39009;53.166;6.232;2022-07-30T03:20:33;12.20;99.90
53114;DHT22;39009;53.166;6.232;2022-07-30T03:23:00;12.10;99.90
53114;DHT22;39009;53.166;6.232;2022-07-30T03:25:26;12.20;99.90
53114;DHT22;39009;53.166;6.232;2022-07-30T03:27:54;12.00;99.90
53114;DHT22;39009;53.166;6.232;2022-07-30T03:30:21;12.00;99.90
53114;DHT22;39009;53.166;6.232;2022-07-30T03:32:47;11.90;99.90
53114;DHT22;39009;53.166;6.232;2022-07-30T03:35:13;11.90;99.90
53114;DHT22;39009;53.166;6.232;2022-07-30T03:37:39;11.90;99.90
53114;DHT22;39009;53.166;6.232;2022-07-30T03:40:05;11.90;99.90
53114;DHT22;39009;53.166;6.232;2022-07-30T03:42:31;11.90;99.90
53114;DHT22;39009;53.166;6.232;2022-07-30T03:44:58;12.00;99.90
53114;DHT22;39009;53.166;6.232;2022-07-30T03:47:24;11.90;99.90
53114;DHT22;39009;53.166;6.232;2022-07-30T03:49:50;11.90;99.90
53114;DHT22;39009;53.166;6.232;2022-07-30T03:52:17;11.90;99.90
53114;DHT22;39009;53.166;6.232;2022-07-30T03:54:43;11.80;99.90
53114;DHT22;39009;53.166;6.232;2022-07-30T03:57:09;11.80;99.90
53114;DHT22;39009;53.166;6.232;2022-07-30T03:59:35;11.80;99.90
53114;DHT22;39009;53.166;6.232;2022-07-30T04:02:01;11.80;99.90
53114;DHT22;39009;53.166;6.232;2022-07-30T04:04:27;11.80;99.90
53114;DHT22;39009;53.166;6.232;2022-07-30T04:09:22;11.80;99.90
53114;DHT22;39009;53.166;6.232;2022-07-30T04:11:47;11.80;99.90
53114;DHT22;39009;53.166;6.232;2022-07-30T04:14:13;11.80;99.90
53114;DHT22;39009;53.166;6.232;2022-07-30T04:19:07;11.90;99.90
53114;DHT22;39009;53.166;6.232;2022-07-30T04:21:34;11.90;99.90
53114;DHT22;39009;53.166;6.232;2022-07-30T04:24:01;11.90;99.90
53114;DHT22;39009;53.166;6.232;2022-07-30T04:26:30;12.00;99.90
53114;DHT22;39009;53.166;6.232;2022-07-30T04:28:57;12.00;99.90
53114;DHT22;39009;53.166;6.232;2022-07-30T04:31:23;12.00;99.90
53114;DHT22;39009;53.166;6.232;2022-07-30T04:33:49;12.10;99.90
53114;DHT22;39009;53.166;6.232;2022-07-30T04:36:15;12.20;99.90
53114;DHT22;39009;53.166;6.232;2022-07-30T04:38:40;12.20;99.90
53114;DHT22;39009;53.166;6.232;2022-07-30T04:41:06;12.20;99.90
53114;DHT22;39009;53.166;6.232;2022-07-30T04:43:31;12.30;99.90
53114;DHT22;39009;53.166;6.232;2022-07-30T04:45:57;12.40;99.90
53114;DHT22;39009;53.166;6.232;2022-07-30T04:48:22;12.40;99.90
53114;DHT22;39009;53.166;6.232;2022-07-30T04:50:52;12.50;99.90
53114;DHT22;39009;53.166;6.232;2022-07-30T04:53:19;12.60;99.90
53114;DHT22;39009;53.166;6.232;2022-07-30T04:55:45;12.70;99.90
53114;DHT22;39009;53.166;6.232;2022-07-30T04:58:11;12.80;99.90
53114;DHT22;39009;53.166;6.232;2022-07-30T05:00:37;12.90;99.90
53114;DHT22;39009;53.166;6.232;2022-07-30T05:03:04;12.90;99.90
53114;DHT22;39009;53.166;6.232;2022-07-30T05:05:31;13.00;99.90
53114;DHT22;39009;53.166;6.232;2022-07-30T05:07:57;13.10;99.90
53114;DHT22;39009;53.166;6.232;2022-07-30T05:10:23;13.30;99.90
53114;DHT22;39009;53.166;6.232;2022-07-30T05:12:49;13.30;99.90
53114;DHT22;39009;53.166;6.232;2022-07-30T05:15:15;13.40;99.90
53114;DHT22;39009;53.166;6.232;2022-07-30T05:17:41;13.50;99.90
53114;DHT22;39009;53.166;6.232;2022-07-30T05:20:07;13.50;99.90
53114;DHT22;39009;53.166;6.232;2022-07-30T05:22:33;13.60;99.90
53114;DHT22;39009;53.166;6.232;2022-07-30T05:24:59;13.80;99.90
53114;DHT22;39009;53.166;6.232;2022-07-30T05:27:25;14.00;99.90
53114;DHT22;39009;53.166;6.232;2022-07-30T05:29:50;14.10;99.90
53114;DHT22;39009;53.166;6.232;2022-07-30T05:32:16;14.20;99.90
53114;DHT22;39009;53.166;6.232;2022-07-30T05:34:41;14.20;99.90
53114;DHT22;39009;53.166;6.232;2022-07-30T05:37:07;14.30;99.90
53114;DHT22;39009;53.166;6.232;2022-07-30T05:39:32;14.50;99.90
53114;DHT22;39009;53.166;6.232;2022-07-30T05:41:58;14.60;99.90
53114;DHT22;39009;53.166;6.232;2022-07-30T05:44:24;14.70;99.90
53114;DHT22;39009;53.166;6.232;2022-07-30T05:46:49;14.80;99.90
53114;DHT22;39009;53.166;6.232;2022-07-30T05:49:15;15.00;99.90
53114;DHT22;39009;53.166;6.232;2022-07-30T05:51:41;15.20;99.90
53114;DHT22;39009;53.166;6.232;2022-07-30T05:54:07;15.40;99.90
53114;DHT22;39009;53.166;6.232;2022-07-30T05:56:32;15.70;99.90
53114;DHT22;39009;53.166;6.232;2022-07-30T05:58:58;16.10;99.90
53114;DHT22;39009;53.166;6.232;2022-07-30T06:01:24;16.30;99.90
53114;DHT22;39009;53.166;6.232;2022-07-30T06:03:49;16.60;99.90
53114;DHT22;39009;53.166;6.232;2022-07-30T06:06:15;16.90;99.90
53114;DHT22;39009;53.166;6.232;2022-07-30T06:08:40;17.10;99.90
53114;DHT22;39009;53.166;6.232;2022-07-30T06:11:06;17.40;99.90
53114;DHT22;39009;53.166;6.232;2022-07-30T06:13:33;17.60;99.90
53114;DHT22;39009;53.166;6.232;2022-07-30T06:15:59;18.00;99.90
53114;DHT22;39009;53.166;6.232;2022-07-30T06:18:27;18.30;99.90
53114;DHT22;39009;53.166;6.232;2022-07-30T06:20:53;18.60;99.90
53114;DHT22;39009;53.166;6.232;2022-07-30T06:23:19;18.90;99.90
53114;DHT22;39009;53.166;6.232;2022-07-30T06:25:46;19.20;99.90
53114;DHT22;39009;53.166;6.232;2022-07-30T06:28:13;19.60;99.90
53114;DHT22;39009;53.166;6.232;2022-07-30T06:30:41;19.90;99.90
53114;DHT22;39009;53.166;6.232;2022-07-30T06:33:10;20.20;99.90
53114;DHT22;39009;53.166;6.232;2022-07-30T06:35:36;20.50;99.90
53114;DHT22;39009;53.166;6.232;2022-07-30T06:38:01;20.70;99.90
53114;DHT22;39009;53.166;6.232;2022-07-30T06:40:27;20.80;99.90
53114;DHT22;39009;53.166;6.232;2022-07-30T06:42:53;20.90;99.90
53114;DHT22;39009;53.166;6.232;2022-07-30T06:45:18;21.00;99.90
53114;DHT22;39009;53.166;6.232;2022-07-30T06:47:44;21.10;99.90
53114;DHT22;39009;53.166;6.232;2022-07-30T06:50:09;21.20;99.90
53114;DHT22;39009;53.166;6.232;2022-07-30T06:52:35;21.40;99.90
53114;DHT22;39009;53.166;6.232;2022-07-30T06:55:01;21.30;99.90
53114;DHT22;39009;53.166;6.232;2022-07-30T06:57:26;21.50;99.90
53114;DHT22;39009;53.166;6.232;2022-07-30T06:59:52;21.70;99.90
53114;DHT22;39009;53.166;6.232;2022-07-30T07:02:18;22.00;99.90
53114;DHT22;39009;53.166;6.232;2022-07-30T07:04:43;22.20;99.90
53114;DHT22;39009;53.166;6.232;2022-07-30T07:07:09;22.40;99.90
53114;DHT22;39009;53.166;6.232;2022-07-30T07:09:34;22.40;99.90
53114;DHT22;39009;53.166;6.232;2022-07-30T07:12:00;22.50;99.90
53114;DHT22;39009;53.166;6.232;2022-07-30T07:14:25;22.80;99.90
53114;DHT22;39009;53.166;6.232;2022-07-30T07:16:51;22.90;99.90
53114;DHT22;39009;53.166;6.232;2022-07-30T07:19:17;23.00;99.90
53114;DHT22;39009;53.166;6.232;2022-07-30T07:21:42;22.70;99.90
53114;DHT22;39009;53.166;6.232;2022-07-30T07:24:08;22.40;99.90
53114;DHT22;39009;53.166;6.232;2022-07-30T07:26:34;22.20;99.90
53114;DHT22;39009;53.166;6.232;2022-07-30T07:28:59;22.30;99.90
53114;DHT22;39009;53.166;6.232;2022-07-30T07:31:25;22.30;99.90
53114;DHT22;39009;53.166;6.232;2022-07-30T07:33:51;22.50;99.90
53114;DHT22;39009;53.166;6.232;2022-07-30T07:36:20;22.60;99.90
53114;DHT22;39009;53.166;6.232;2022-07-30T07:38:45;22.40;99.90
53114;DHT22;39009;53.166;6.232;2022-07-30T07:41:11;22.50;99.90
53114;DHT22;39009;53.166;6.232;2022-07-30T07:43:37;22.90;99.90
53114;DHT22;39009;53.166;6.232;2022-07-30T07:46:02;23.30;99.90
53114;DHT22;39009;53.166;6.232;2022-07-30T07:48:28;23.70;99.90
53114;DHT22;39009;53.166;6.232;2022-07-30T07:50:54;24.00;99.90
53114;DHT22;39009;53.166;6.232;2022-07-30T07:53:19;23.70;99.90
53114;DHT22;39009;53.166;6.232;2022-07-30T07:55:45;23.50;99.90
53114;DHT22;39009;53.166;6.232;2022-07-30T07:58:10;23.30;99.90
53114;DHT22;39009;53.166;6.232;2022-07-30T08:00:38;23.30;99.90
53114;DHT22;39009;53.166;6.232;2022-07-30T08:03:04;23.60;99.90
53114;DHT22;39009;53.166;6.232;2022-07-30T08:05:29;23.80;99.90
53114;DHT22;39009;53.166;6.232;2022-07-30T08:07:55;24.00;99.90
53114;DHT22;39009;53.166;6.232;2022-07-30T08:10:21;24.00;99.90
53114;DHT22;39009;53.166;6.232;2022-07-30T08:12:46;23.90;99.90
53114;DHT22;39009;53.166;6.232;2022-07-30T08:15:12;24.20;99.90
53114;DHT22;39009;53.166;6.232;2022-07-30T08:17:39;24.50;99.90
53114;DHT22;39009;53.166;6.232;2022-07-30T08:20:05;24.50;99.90
53114;DHT22;39009;53.166;6.232;2022-07-30T08:22:31;24.40;99.90
53114;DHT22;39009;53.166;6.232;2022-07-30T08:24:56;24.50;99.90
53114;DHT22;39009;53.166;6.232;2022-07-30T08:27:22;25.20;99.90
53114;DHT22;39009;53.166;6.232;2022-07-30T08:29:48;26.00;99.90
53114;DHT22;39009;53.166;6.232;2022-07-30T08:32:13;26.80;99.90
53114;DHT22;39009;53.166;6.232;2022-07-30T08:34:39;27.10;99.70
53114;DHT22;39009;53.166;6.232;2022-07-30T08:37:04;27.60;97.90
53114;DHT22;39009;53.166;6.232;2022-07-30T08:39:30;27.90;98.70
53114;DHT22;39009;53.166;6.232;2022-07-30T08:41:56;28.10;99.80
53114;DHT22;39009;53.166;6.232;2022-07-30T08:44:21;27.80;99.90
53114;DHT22;39009;53.166;6.232;2022-07-30T08:46:47;27.70;99.60
53114;DHT22;39009;53.166;6.232;2022-07-30T08:49:13;27.60;98.20
53114;DHT22;39009;53.166;6.232;2022-07-30T08:51:40;27.50;97.30
53114;DHT22;39009;53.166;6.232;2022-07-30T08:54:05;27.20;97.20
53114;DHT22;39009;53.166;6.232;2022-07-30T08:56:31;26.70;96.70
53114;DHT22;39009;53.166;6.232;2022-07-30T08:58:58;26.50;98.10
53114;DHT22;39009;53.166;6.232;2022-07-30T09:01:27;26.50;96.70
53114;DHT22;39009;53.166;6.232;2022-07-30T09:03:52;26.80;97.60
53114;DHT22;39009;53.166;6.232;2022-07-30T09:06:18;27.10;97.10
53114;DHT22;39009;53.166;6.232;2022-07-30T09:08:43;27.40;99.90
53114;DHT22;39009;53.166;6.232;2022-07-30T09:11:09;27.50;96.60
53114;DHT22;39009;53.166;6.232;2022-07-30T09:13:38;27.60;96.70
53114;DHT22;39009;53.166;6.232;2022-07-30T09:16:06;27.60;95.40
53114;DHT22;39009;53.166;6.232;2022-07-30T09:21:13;28.00;99.10
53114;DHT22;39009;53.166;6.232;2022-07-30T09:23:39;28.10;96.10
53114;DHT22;39009;53.166;6.232;2022-07-30T09:26:05;28.20;94.80
53114;DHT22;39009;53.166;6.232;2022-07-30T09:28:31;28.50;95.50
53114;DHT22;39009;53.166;6.232;2022-07-30T09:30:57;28.60;98.00
53114;DHT22;39009;53.166;6.232;2022-07-30T09:33:31;28.50;94.30
53114;DHT22;39009;53.166;6.232;2022-07-30T09:35:58;28.60;95.00
53114;DHT22;39009;53.166;6.232;2022-07-30T09:38:23;28.80;96.00
53114;DHT22;39009;53.166;6.232;2022-07-30T09:40:50;28.90;94.40
53114;DHT22;39009;53.166;6.232;2022-07-30T09:43:16;28.80;94.00
53114;DHT22;39009;53.166;6.232;2022-07-30T09:45:50;28.80;93.90
53114;DHT22;39009;53.166;6.232;2022-07-30T09:48:19;28.90;95.90
53114;DHT22;39009;53.166;6.232;2022-07-30T09:50:46;28.70;93.20
53114;DHT22;39009;53.166;6.232;2022-07-30T09:53:12;28.70;93.20
53114;DHT22;39009;53.166;6.232;2022-07-30T09:55:39;28.20;93.30
53114;DHT22;39009;53.166;6.232;2022-07-30T09:58:04;27.80;95.30
53114;DHT22;39009;53.166;6.232;2022-07-30T10:00:31;27.20;93.90
53114;DHT22;39009;53.166;6.232;2022-07-30T10:02:57;27.20;94.70
53114;DHT22;39009;53.166;6.232;2022-07-30T10:05:25;27.40;94.10
53114;DHT22;39009;53.166;6.232;2022-07-30T10:07:52;27.80;94.70
53114;DHT22;39009;53.166;6.232;2022-07-30T10:10:18;28.20;94.20
53114;DHT22;39009;53.166;6.232;2022-07-30T10:12:45;28.60;93.70
53114;DHT22;39009;53.166;6.232;2022-07-30T10:15:10;28.60;92.70
53114;DHT22;39009;53.166;6.232;2022-07-30T10:17:37;28.10;92.50
53114;DHT22;39009;53.166;6.232;2022-07-30T10:20:04;27.90;94.00
53114;DHT22;39009;53.166;6.232;2022-07-30T10:22:32;27.80;93.40
53114;DHT22;39009;53.166;6.232;2022-07-30T10:24:58;28.00;93.40
53114;DHT22;39009;53.166;6.232;2022-07-30T10:27:24;27.80;92.10
53114;DHT22;39009;53.166;6.232;2022-07-30T10:29:49;27.80;92.50
53114;DHT22;39009;53.166;6.232;2022-07-30T10:32:15;28.00;92.50
53114;DHT22;39009;53.166;6.232;2022-07-30T10:34:41;28.20;92.50
53114;DHT22;39009;53.166;6.232;2022-07-30T10:37:07;28.90;92.50
53114;DHT22;39009;53.166;6.232;2022-07-30T10:39:36;29.40;92.10
53114;DHT22;39009;53.166;6.232;2022-07-30T10:42:10;30.00;91.30
53114;DHT22;39009;53.166;6.232;2022-07-30T10:47:25;29.40;90.30
53114;DHT22;39009;53.166;6.232;2022-07-30T10:50:04;28.80;90.40
53114;DHT22;39009;53.166;6.232;2022-07-30T10:52:41;28.90;92.00
53114;DHT22;39009;53.166;6.232;2022-07-30T10:55:11;29.10;91.60
53114;DHT22;39009;53.166;6.232;2022-07-30T10:57:36;29.20;90.30
53114;DHT22;39009;53.166;6.232;2022-07-30T11:00:21;29.00;91.10
53114;DHT22;39009;53.166;6.232;2022-07-30T11:05:33;28.40;91.30
53114;DHT22;39009;53.166;6.232;2022-07-30T11:08:27;29.00;90.10
53114;DHT22;39009;53.166;6.232;2022-07-30T11:10:53;29.20;92.50
53114;DHT22;39009;53.166;6.232;2022-07-30T11:13:18;29.00;90.00
53114;DHT22;39009;53.166;6.232;2022-07-30T11:16:04;29.10;90.20
53114;DHT22;39009;53.166;6.232;2022-07-30T11:18:29;29.60;90.10
53114;DHT22;39009;53.166;6.232;2022-07-30T11:21:14;29.80;90.90
53114;DHT22;39009;53.166;6.232;2022-07-30T11:23:40;29.10;87.00
53114;DHT22;39009;53.166;6.232;2022-07-30T11:26:07;28.90;90.00
53114;DHT22;39009;53.166;6.232;2022-07-30T11:28:36;29.10;89.50
53114;DHT22;39009;53.166;6.232;2022-07-30T11:31:03;29.60;89.50
53114;DHT22;39009;53.166;6.232;2022-07-30T11:33:48;29.50;90.20
53114;DHT22;39009;53.166;6.232;2022-07-30T11:36:13;29.20;87.70
53114;DHT22;39009;53.166;6.232;2022-07-30T11:38:50;29.50;90.40
53114;DHT22;39009;53.166;6.232;2022-07-30T11:41:16;30.00;88.20
53114;DHT22;39009;53.166;6.232;2022-07-30T11:43:42;30.80;84.40
53114;DHT22;39009;53.166;6.232;2022-07-30T11:46:08;31.10;83.80
53114;DHT22;39009;53.166;6.232;2022-07-30T11:48:35;31.10;82.00
53114;DHT22;39009;53.166;6.232;2022-07-30T11:51:01;30.90;81.40
53114;DHT22;39009;53.166;6.232;2022-07-30T11:53:27;30.70;82.40
53114;DHT22;39009;53.166;6.232;2022-07-30T11:55:53;30.60;83.30
53114;DHT22;39009;53.166;6.232;2022-07-30T11:58:25;30.60;84.50
53114;DHT22;39009;53.166;6.232;2022-07-30T12:00:51;30.40;84.00
53114;DHT22;39009;53.166;6.232;2022-07-30T12:03:18;30.30;88.50
53114;DHT22;39009;53.166;6.232;2022-07-30T12:05:44;30.10;85.00
53114;DHT22;39009;53.166;6.232;2022-07-30T12:08:10;30.00;85.10
53114;DHT22;39009;53.166;6.232;2022-07-30T12:10:36;30.00;84.70
53114;DHT22;39009;53.166;6.232;2022-07-30T12:13:05;30.10;83.50
53114;DHT22;39009;53.166;6.232;2022-07-30T12:15:32;30.20;85.20
53114;DHT22;39009;53.166;6.232;2022-07-30T12:17:57;30.20;84.10
53114;DHT22;39009;53.166;6.232;2022-07-30T12:20:24;30.20;84.30
53114;DHT22;39009;53.166;6.232;2022-07-30T12:22:50;30.20;82.20
53114;DHT22;39009;53.166;6.232;2022-07-30T12:25:15;29.90;81.10
53114;DHT22;39009;53.166;6.232;2022-07-30T12:27:44;29.90;85.50
53114;DHT22;39009;53.166;6.232;2022-07-30T12:30:10;29.80;83.50
53114;DHT22;39009;53.166;6.232;2022-07-30T12:32:36;29.80;85.50
53114;DHT22;39009;53.166;6.232;2022-07-30T12:35:02;29.80;83.00
53114;DHT22;39009;53.166;6.232;2022-07-30T12:37:28;29.70;82.40
53114;DHT22;39009;53.166;6.232;2022-07-30T12:40:03;29.80;83.20
53114;DHT22;39009;53.166;6.232;2022-07-30T12:42:29;29.60;82.40
53114;DHT22;39009;53.166;6.232;2022-07-30T12:44:55;29.50;84.00
53114;DHT22;39009;53.166;6.232;2022-07-30T12:47:22;29.70;83.80
53114;DHT22;39009;53.166;6.232;2022-07-30T12:49:49;29.90;82.20
53114;DHT22;39009;53.166;6.232;2022-07-30T12:52:19;30.00;82.90
53114;DHT22;39009;53.166;6.232;2022-07-30T12:54:55;30.50;82.30
53114;DHT22;39009;53.166;6.232;2022-07-30T12:57:20;30.60;81.40
53114;DHT22;39009;53.166;6.232;2022-07-30T12:59:46;30.80;79.80
53114;DHT22;39009;53.166;6.232;2022-07-30T13:02:11;30.60;79.80
53114;DHT22;39009;53.166;6.232;2022-07-30T13:04:48;30.50;80.10
53114;DHT22;39009;53.166;6.232;2022-07-30T13:07:14;30.30;79.70
53114;DHT22;39009;53.166;6.232;2022-07-30T13:09:41;29.90;80.80
53114;DHT22;39009;53.166;6.232;2022-07-30T13:12:10;29.50;81.00
53114;DHT22;39009;53.166;6.232;2022-07-30T13:14:36;29.50;81.30
53114;DHT22;39009;53.166;6.232;2022-07-30T13:17:02;29.50;83.00
53114;DHT22;39009;53.166;6.232;2022-07-30T13:19:27;29.60;81.60
53114;DHT22;39009;53.166;6.232;2022-07-30T13:21:53;29.70;81.40
53114;DHT22;39009;53.166;6.232;2022-07-30T13:24:19;29.40;82.50
53114;DHT22;39009;53.166;6.232;2022-07-30T13:26:45;29.30;81.80
53114;DHT22;39009;53.166;6.232;2022-07-30T13:29:10;29.40;82.20
53114;DHT22;39009;53.166;6.232;2022-07-30T13:31:38;29.40;83.80
53114;DHT22;39009;53.166;6.232;2022-07-30T13:34:03;29.60;82.30
53114;DHT22;39009;53.166;6.232;2022-07-30T13:36:29;29.80;83.10
53114;DHT22;39009;53.166;6.232;2022-07-30T13:38:54;29.60;81.60
53114;DHT22;39009;53.166;6.232;2022-07-30T13:41:20;29.50;81.80
53114;DHT22;39009;53.166;6.232;2022-07-30T13:43:45;29.40;82.70
53114;DHT22;39009;53.166;6.232;2022-07-30T13:46:11;29.30;82.40
53114;DHT22;39009;53.166;6.232;2022-07-30T13:48:37;29.30;82.00
53114;DHT22;39009;53.166;6.232;2022-07-30T13:51:03;29.30;82.30
53114;DHT22;39009;53.166;6.232;2022-07-30T13:53:29;29.20;83.30
53114;DHT22;39009;53.166;6.232;2022-07-30T13:55:54;29.10;82.20
53114;DHT22;39009;53.166;6.232;2022-07-30T13:58:20;28.90;82.30
53114;DHT22;39009;53.166;6.232;2022-07-30T14:00:46;28.80;82.90
53114;DHT22;39009;53.166;6.232;2022-07-30T14:03:12;28.60;82.80
53114;DHT22;39009;53.166;6.232;2022-07-30T14:05:38;28.30;82.50
53114;DHT22;39009;53.166;6.232;2022-07-30T14:08:04;28.00;81.50
53114;DHT22;39009;53.166;6.232;2022-07-30T14:10:30;27.70;82.00
53114;DHT22;39009;53.166;6.232;2022-07-30T14:12:57;27.30;82.00
53114;DHT22;39009;53.166;6.232;2022-07-30T14:15:24;27.40;82.90
53114;DHT22;39009;53.166;6.232;2022-07-30T14:17:50;27.40;83.30
53114;DHT22;39009;53.166;6.232;2022-07-30T14:20:17;27.50;83.10
53114;DHT22;39009;53.166;6.232;2022-07-30T14:22:42;27.40;83.50
53114;DHT22;39009;53.166;6.232;2022-07-30T14:25:08;27.50;83.10
53114;DHT22;39009;53.166;6.232;2022-07-30T14:27:34;27.40;83.50
53114;DHT22;39009;53.166;6.232;2022-07-30T14:30:00;27.40;82.90
53114;DHT22;39009;53.166;6.232;2022-07-30T14:32:26;27.40;82.10
53114;DHT22;39009;53.166;6.232;2022-07-30T14:34:52;27.40;79.70
53114;DHT22;39009;53.166;6.232;2022-07-30T14:37:17;27.30;81.70
53114;DHT22;39009;53.166;6.232;2022-07-30T14:39:43;27.40;81.30
53114;DHT22;39009;53.166;6.232;2022-07-30T14:42:08;27.40;79.30
53114;DHT22;39009;53.166;6.232;2022-07-30T14:44:34;27.30;78.40
53114;DHT22;39009;53.166;6.232;2022-07-30T14:47:00;27.10;80.40
53114;DHT22;39009;53.166;6.232;2022-07-30T14:49:25;27.00;78.90
53114;DHT22;39009;53.166;6.232;2022-07-30T14:51:51;26.90;79.60
53114;DHT22;39009;53.166;6.232;2022-07-30T14:54:17;26.80;80.20
53114;DHT22;39009;53.166;6.232;2022-07-30T14:56:42;26.80;80.80
53114;DHT22;39009;53.166;6.232;2022-07-30T14:59:08;26.70;81.10
53114;DHT22;39009;53.166;6.232;2022-07-30T15:01:33;26.90;82.40
53114;DHT22;39009;53.166;6.232;2022-07-30T15:03:59;26.90;81.30
53114;DHT22;39009;53.166;6.232;2022-07-30T15:06:25;26.90;81.50
53114;DHT22;39009;53.166;6.232;2022-07-30T15:08:51;26.80;79.70
53114;DHT22;39009;53.166;6.232;2022-07-30T15:11:17;26.70;80.60
53114;DHT22;39009;53.166;6.232;2022-07-30T15:13:43;26.40;81.20
53114;DHT22;39009;53.166;6.232;2022-07-30T15:16:08;26.20;80.00
53114;DHT22;39009;53.166;6.232;2022-07-30T15:18:34;26.00;81.00
53114;DHT22;39009;53.166;6.232;2022-07-30T15:20:59;26.00;81.40
53114;DHT22;39009;53.166;6.232;2022-07-30T15:23:25;25.90;81.80
53114;DHT22;39009;53.166;6.232;2022-07-30T15:25:51;25.90;82.00
53114;DHT22;39009;53.166;6.232;2022-07-30T15:28:16;26.00;81.50
53114;DHT22;39009;53.166;6.232;2022-07-30T15:30:42;25.90;81.90
53114;DHT22;39009;53.166;6.232;2022-07-30T15:33:08;25.80;82.40
53114;DHT22;39009;53.166;6.232;2022-07-30T15:35:33;25.70;83.00
53114;DHT22;39009;53.166;6.232;2022-07-30T15:37:59;25.70;83.50
53114;DHT22;39009;53.166;6.232;2022-07-30T15:40:24;25.70;83.30
53114;DHT22;39009;53.166;6.232;2022-07-30T15:42:50;25.70;83.90